createdAt,value
2023-06-23T00:02:18.137Z,100561.25
2023-06-23T00:04:46.774Z,100562.88
2023-06-23T00:07:16.011Z,100571.84
2023-06-23T00:09:44.755Z,100573.41
2023-06-23T00:12:13.311Z,100581.34
2023-06-23T00:14:43.461Z,100577.59
2023-06-23T00:17:13.372Z,100581.13
2023-06-23T00:19:41.911Z,100586.44
2023-06-23T00:22:10.483Z,100590.72
2023-06-23T00:24:39.010Z,100594.34
2023-06-23T00:27:07.777Z,100597.75
2023-06-23T00:29:36.358Z,100599.59
2023-06-23T00:32:05.350Z,100602.25
2023-06-23T00:34:34.962Z,100612.72
2023-06-23T00:37:03.878Z,100609.28
2023-06-23T00:39:32.435Z,100614.84
2023-06-23T00:42:04.923Z,100614.56
2023-06-23T00:44:34.430Z,100627.69
2023-06-23T00:47:05.994Z,100622.56
2023-06-23T00:49:37.282Z,100642.09
2023-06-23T00:52:08.441Z,100650.09
2023-06-23T00:54:37.754Z,100651.00
2023-06-23T00:57:08.099Z,100649.16
2023-06-23T00:59:36.721Z,100646.59
2023-06-23T01:02:05.943Z,100637.50
2023-06-23T01:04:36.307Z,100651.84
2023-06-23T01:07:16.232Z,100646.50
2023-06-23T01:09:56.593Z,100651.06
2023-06-23T01:12:32.920Z,100654.81
2023-06-23T01:15:07.937Z,100668.28
2023-06-23T01:17:41.853Z,100668.50
2023-06-23T01:20:22.166Z,100672.09
2023-06-23T01:23:21.829Z,100680.09
2023-06-23T01:25:56.477Z,100682.97
2023-06-23T01:28:49.925Z,100695.19
2023-06-23T01:31:27.171Z,100697.94
2023-06-23T01:34:00.111Z,100710.44
2023-06-23T01:36:35.042Z,100714.81
2023-06-23T01:39:05.264Z,100714.91
2023-06-23T01:41:40.067Z,100725.47
2023-06-23T01:44:15.171Z,100706.69
2023-06-23T01:46:46.520Z,100708.63
2023-06-23T01:49:20.089Z,100705.09
2023-06-23T01:51:51.175Z,100707.75
2023-06-23T01:54:21.943Z,100704.13
2023-06-23T01:56:52.277Z,100721.03
2023-06-23T01:59:25.916Z,100724.53
2023-06-23T02:01:56.787Z,100723.56
2023-06-23T02:04:26.549Z,100725.38
2023-06-23T02:06:57.261Z,100728.91
2023-06-23T02:09:28.683Z,100725.25
2023-06-23T02:11:59.645Z,100730.59
2023-06-23T02:14:32.355Z,100731.34
2023-06-23T02:17:01.667Z,100717.38
2023-06-23T02:19:31.026Z,100721.03
2023-06-23T02:21:59.954Z,100720.13
2023-06-23T02:24:29.533Z,100723.78
2023-06-23T02:26:58.511Z,100722.09
2023-06-23T02:29:27.282Z,100719.47
2023-06-23T02:31:57.409Z,100722.25
2023-06-23T02:34:26.884Z,100733.16
2023-06-23T02:37:00.585Z,100723.19
2023-06-23T02:39:32.908Z,100729.50
2023-06-23T02:42:03.618Z,100719.03
2023-06-23T02:44:37.086Z,100717.34
2023-06-23T02:47:13.316Z,100726.28
2023-06-23T02:49:42.673Z,100724.78
2023-06-23T02:52:12.772Z,100727.47
2023-06-23T02:54:46.184Z,100715.81
2023-06-23T02:57:18.126Z,100735.47
2023-06-23T02:59:48.854Z,100737.38
2023-06-23T03:02:23.365Z,100744.44
2023-06-23T03:04:53.256Z,100741.00
2023-06-23T03:07:22.035Z,100741.22
2023-06-23T03:09:50.651Z,100753.78
2023-06-23T03:12:19.394Z,100752.09
2023-06-23T03:14:48.535Z,100758.28
2023-06-23T03:17:27.713Z,100766.19
2023-06-23T03:20:02.550Z,100766.19
2023-06-23T03:22:34.967Z,100772.63
2023-06-23T03:25:07.159Z,100779.53
2023-06-23T03:27:39.075Z,100785.81
2023-06-23T03:30:14.114Z,100784.88
2023-06-23T03:32:48.954Z,100786.44
2023-06-23T03:35:22.643Z,100793.59
2023-06-23T03:37:54.566Z,100802.47
2023-06-23T03:40:25.698Z,100798.00
2023-06-23T03:42:58.526Z,100799.72
2023-06-23T03:45:29.053Z,100814.00
2023-06-23T03:48:04.110Z,100816.69
2023-06-23T03:50:35.991Z,100822.22
2023-06-23T03:53:07.063Z,100832.13
2023-06-23T03:55:38.149Z,100834.03
2023-06-23T03:58:09.088Z,100846.53
2023-06-23T04:00:41.679Z,100851.94
2023-06-23T04:03:14.425Z,100847.56
2023-06-23T04:05:45.093Z,100846.81
2023-06-23T04:08:15.174Z,100848.53
2023-06-23T04:10:45.850Z,100848.53
2023-06-23T04:13:16.244Z,100849.28
2023-06-23T04:15:46.795Z,100857.28
2023-06-23T04:18:18.895Z,100854.06
2023-06-23T04:20:48.881Z,100858.75
2023-06-23T04:23:20.031Z,100856.94
2023-06-23T04:25:51.433Z,100847.22
2023-06-23T04:28:23.203Z,100862.28
2023-06-23T04:30:52.753Z,100876.47
2023-06-23T04:33:25.245Z,100866.44
2023-06-23T04:36:01.565Z,100876.06
2023-06-23T04:38:35.139Z,100885.69
2023-06-23T04:41:08.328Z,100888.34
2023-06-23T04:43:40.643Z,100891.03
2023-06-23T04:46:15.289Z,100896.34
2023-06-23T04:48:51.121Z,100906.38
2023-06-23T04:51:23.521Z,100906.84
2023-06-23T04:53:57.936Z,100907.16
2023-06-23T04:56:32.903Z,100916.22
2023-06-23T04:59:06.612Z,100921.75
2023-06-23T05:01:36.815Z,100923.84
2023-06-23T05:04:07.493Z,100932.69
2023-06-23T05:06:38.842Z,100933.53
2023-06-23T05:09:08.607Z,100940.59
2023-06-23T05:11:38.059Z,100947.63
2023-06-23T05:14:08.804Z,100949.34
2023-06-23T05:16:38.833Z,100941.53
2023-06-23T05:19:11.606Z,100944.19
2023-06-23T05:21:42.048Z,100947.72
2023-06-23T05:24:13.134Z,100955.72
2023-06-23T05:26:43.588Z,100957.53
2023-06-23T05:29:15.657Z,100966.56
2023-06-23T05:31:46.116Z,100969.25
2023-06-23T05:34:19.505Z,100975.28
2023-06-23T05:36:50.193Z,100981.53
2023-06-23T05:39:21.180Z,100974.31
2023-06-23T05:41:49.859Z,100972.59
2023-06-23T05:44:18.477Z,100986.69
2023-06-23T05:46:48.613Z,100995.25
2023-06-23T05:49:21.117Z,101001.91
2023-06-23T05:51:55.601Z,100994.47
2023-06-23T05:54:25.992Z,100993.25
2023-06-23T05:56:59.811Z,100988.56
2023-06-23T05:59:34.495Z,100986.75
2023-06-23T06:02:06.221Z,100996.75
2023-06-23T06:04:41.667Z,100989.72
2023-06-23T06:07:12.682Z,101002.41
2023-06-23T06:09:41.867Z,101022.66
2023-06-23T06:12:12.166Z,101006.31
2023-06-23T06:14:42.178Z,101034.56
2023-06-23T06:17:12.934Z,101039.63
2023-06-23T06:19:44.354Z,101039.13
2023-06-23T06:22:18.210Z,101051.44
2023-06-23T06:24:48.499Z,101050.50
2023-06-23T06:27:18.486Z,101055.72
2023-06-23T06:29:48.093Z,101059.25
2023-06-23T06:32:18.378Z,101067.22
2023-06-23T06:34:49.509Z,101063.50
2023-06-23T06:37:20.373Z,101065.00
2023-06-23T06:39:49.873Z,101062.50
2023-06-23T06:42:18.418Z,101057.22
2023-06-23T06:44:47.268Z,101073.50
2023-06-23T06:47:18.315Z,101079.34
2023-06-23T06:49:49.580Z,101067.03
2023-06-23T06:52:19.181Z,101079.81
2023-06-23T06:54:47.969Z,101087.63
2023-06-23T06:57:17.274Z,101087.63
2023-06-23T06:59:45.834Z,101096.22
2023-06-23T07:02:15.241Z,101099.06
2023-06-23T07:04:44.623Z,101095.00
2023-06-23T07:07:17.405Z,101094.81
2023-06-23T07:09:46.039Z,101103.78
2023-06-23T07:12:14.297Z,101107.00
2023-06-23T07:14:42.928Z,101104.72
2023-06-23T07:17:11.258Z,101113.50
2023-06-23T07:19:41.775Z,101101.84
2023-06-23T07:22:10.738Z,101100.66
2023-06-23T07:24:40.631Z,101099.97
2023-06-23T07:27:09.725Z,101116.28
2023-06-23T07:29:38.339Z,101120.34
2023-06-23T07:32:09.181Z,101115.78
2023-06-23T07:34:37.946Z,101134.06
2023-06-23T07:37:07.026Z,101130.88
2023-06-23T07:39:35.377Z,101125.78
2023-06-23T07:42:05.912Z,101135.22
2023-06-23T07:44:34.535Z,101142.16
2023-06-23T07:47:03.237Z,101144.13
2023-06-23T07:49:32.046Z,101147.66
2023-06-23T07:52:01.561Z,101137.66
2023-06-23T07:54:30.645Z,101153.63
2023-06-23T07:56:59.387Z,101157.50
2023-06-23T07:59:29.320Z,101157.59
2023-06-23T08:01:58.076Z,101154.06
2023-06-23T08:04:26.790Z,101163.13
2023-06-23T08:06:55.666Z,101158.88
2023-06-23T08:09:24.250Z,101170.34
2023-06-23T08:11:52.794Z,101170.41
2023-06-23T08:14:21.505Z,101162.56
2023-06-23T08:16:51.487Z,101168.50
2023-06-23T08:19:23.109Z,101169.38
2023-06-23T08:21:51.524Z,101183.59
2023-06-23T08:24:20.327Z,101175.41
2023-06-23T08:26:48.926Z,101169.34
2023-06-23T08:29:17.544Z,101171.44
2023-06-23T08:31:46.519Z,101170.44
2023-06-23T08:34:19.464Z,101163.03
2023-06-23T08:36:48.110Z,101171.75
2023-06-23T08:39:16.431Z,101167.19
2023-06-23T08:41:47.212Z,101175.50
2023-06-23T08:44:17.769Z,101178.50
2023-06-23T08:47:04.846Z,101186.09
2023-06-23T08:49:41.743Z,101179.34
2023-06-23T08:52:12.557Z,101195.84
2023-06-23T08:54:41.405Z,101200.22
2023-06-23T08:57:10.130Z,101204.97
2023-06-23T08:59:38.729Z,101207.75
2023-06-23T09:02:07.917Z,101207.22
2023-06-23T09:04:37.964Z,101207.91
2023-06-23T09:07:07.372Z,101217.19
2023-06-23T09:09:35.944Z,101220.81
2023-06-23T09:12:05.003Z,101227.22
2023-06-23T09:14:35.639Z,101219.50
2023-06-23T09:17:04.106Z,101210.50
2023-06-23T09:19:35.006Z,101227.41
2023-06-23T09:22:07.903Z,101229.44
2023-06-23T09:24:44.880Z,101221.06
2023-06-23T09:27:13.787Z,101220.44
2023-06-23T09:29:42.046Z,101227.34
2023-06-23T09:32:13.169Z,101206.88
2023-06-23T09:34:42.238Z,101207.06
2023-06-23T09:37:13.866Z,101213.78
2023-06-23T09:39:47.340Z,101212.72
2023-06-23T09:42:15.929Z,101214.16
2023-06-23T09:44:49.753Z,101217.00
2023-06-23T09:47:20.652Z,101202.13
2023-06-23T09:49:50.772Z,101218.25
2023-06-23T09:52:26.274Z,101207.09
2023-06-23T09:54:56.493Z,101215.75
2023-06-23T09:57:25.218Z,101218.22
2023-06-23T09:59:55.306Z,101216.09
2023-06-23T10:02:27.007Z,101217.44
2023-06-23T10:05:01.500Z,101208.44
2023-06-23T10:07:32.602Z,101218.19
2023-06-23T10:10:16.890Z,101226.63
2023-06-23T10:12:50.573Z,101217.88
2023-06-23T10:15:19.537Z,101219.78
2023-06-23T10:17:48.630Z,101225.13
2023-06-23T10:20:17.533Z,101231.09
2023-06-23T10:22:48.518Z,101236.53
2023-06-23T10:25:17.495Z,101241.78
2023-06-23T10:27:47.590Z,101247.38
2023-06-23T10:30:19.445Z,101248.88
2023-06-23T10:32:55.241Z,101244.78
2023-06-23T10:35:25.268Z,101247.94
2023-06-23T10:38:04.450Z,101241.47
2023-06-23T10:40:40.116Z,101238.31
2023-06-23T10:43:09.920Z,101240.13
2023-06-23T10:45:39.673Z,101245.00
2023-06-23T10:48:09.204Z,101255.69
2023-06-23T10:50:39.726Z,101249.28
2023-06-23T10:53:16.687Z,101246.03
2023-06-23T10:56:03.063Z,101242.91
2023-06-23T10:58:50.554Z,101252.22
2023-06-23T11:01:19.248Z,101255.56
2023-06-23T11:03:51.931Z,101251.63
2023-06-23T11:06:29.816Z,101247.91
2023-06-23T11:09:00.337Z,101258.22
2023-06-23T11:11:36.450Z,101256.00
2023-06-23T11:14:05.039Z,101268.25
2023-06-23T11:16:35.782Z,101265.38
2023-06-23T11:19:06.039Z,101266.38
2023-06-23T11:21:41.098Z,101255.72
2023-06-23T11:24:16.339Z,101263.09
2023-06-23T11:26:46.636Z,101264.53
2023-06-23T11:29:17.654Z,101259.28
2023-06-23T11:32:20.411Z,101271.31
2023-06-23T11:34:53.482Z,101267.50
2023-06-23T11:37:23.357Z,101266.59
2023-06-23T11:39:56.056Z,101282.69
2023-06-23T11:42:25.092Z,101264.50
2023-06-23T11:44:57.997Z,101280.59
2023-06-23T11:47:28.590Z,101273.59
2023-06-23T11:50:03.002Z,101275.88
2023-06-23T11:52:31.566Z,101279.06
2023-06-23T11:55:01.355Z,101270.81
2023-06-23T11:57:32.327Z,101282.41
2023-06-23T12:00:01.844Z,101273.19
2023-06-23T12:02:30.529Z,101264.38
2023-06-23T12:05:00.646Z,101264.78
2023-06-23T12:07:32.205Z,101272.16
2023-06-23T12:10:03.493Z,101265.47
2023-06-23T12:12:32.165Z,101263.91
2023-06-23T12:15:01.467Z,101274.03
2023-06-23T12:17:30.186Z,101277.59
2023-06-23T12:19:59.885Z,101264.22
2023-06-23T12:22:38.266Z,101274.75
2023-06-23T12:25:09.522Z,101274.72
2023-06-23T12:27:39.887Z,101270.53
2023-06-23T12:30:18.127Z,101263.34
2023-06-23T12:32:46.850Z,101264.13
2023-06-23T12:35:19.753Z,101268.22
2023-06-23T12:37:50.553Z,101265.34
2023-06-23T12:40:37.073Z,101259.31
2023-06-23T12:43:07.845Z,101251.78
2023-06-23T12:45:39.233Z,101249.41
2023-06-23T12:48:11.209Z,101249.97
2023-06-23T12:50:43.288Z,101253.88
2023-06-23T12:53:11.946Z,101243.81
2023-06-23T12:55:41.913Z,101261.00
2023-06-23T12:58:10.383Z,101244.38
2023-06-23T13:00:38.908Z,101249.78
2023-06-23T13:03:09.690Z,101259.63
2023-06-23T13:05:40.390Z,101247.03
2023-06-23T13:08:10.002Z,101265.75
2023-06-23T13:10:39.014Z,101255.41
2023-06-23T13:13:08.683Z,101273.81
2023-06-23T13:15:37.460Z,101269.06
2023-06-23T13:18:07.542Z,101260.78
2023-06-23T13:20:36.488Z,101256.56
2023-06-23T13:23:05.222Z,101276.88
2023-06-23T13:25:34.348Z,101270.41
2023-06-23T13:28:03.110Z,101263.88
2023-06-23T13:30:33.072Z,101279.91
2023-06-23T13:33:01.778Z,101256.78
2023-06-23T13:35:30.531Z,101259.16
2023-06-23T13:37:59.278Z,101248.88
2023-06-23T13:40:28.274Z,101261.28
2023-06-23T13:42:56.976Z,101262.25
2023-06-23T13:45:27.092Z,101257.41
2023-06-23T13:47:57.170Z,101256.13
2023-06-23T13:50:28.210Z,101267.28
2023-06-23T13:52:56.865Z,101261.22
2023-06-23T13:55:25.420Z,101266.28
2023-06-23T13:57:54.259Z,101273.63
2023-06-23T14:00:24.082Z,101266.63
2023-06-23T14:02:52.845Z,101256.47
2023-06-23T14:05:22.538Z,101260.00
2023-06-23T14:07:51.218Z,101264.94
2023-06-23T14:10:19.556Z,101268.03
2023-06-23T14:12:48.243Z,101265.16
2023-06-23T14:15:16.820Z,101254.66
2023-06-23T14:17:47.122Z,101256.94
2023-06-23T14:20:18.183Z,101265.56
2023-06-23T14:22:48.220Z,101264.59
2023-06-23T14:25:16.971Z,101266.84
2023-06-23T14:27:45.506Z,101264.50
2023-06-23T14:30:15.142Z,101267.13
2023-06-23T14:32:49.671Z,101269.47
2023-06-23T14:35:19.160Z,101269.47
2023-06-23T14:37:48.843Z,101281.09
2023-06-23T14:40:17.540Z,101278.59
2023-06-23T14:42:47.815Z,101279.16
2023-06-23T14:45:17.093Z,101270.63
2023-06-23T14:47:45.612Z,101275.41
2023-06-23T14:50:14.391Z,101276.34
2023-06-23T14:52:43.030Z,101269.22
2023-06-23T14:55:12.749Z,101266.28
2023-06-23T14:57:41.316Z,101280.78
2023-06-23T15:00:12.087Z,101282.78
2023-06-23T15:02:40.839Z,101280.19
2023-06-23T15:05:10.366Z,101285.50
2023-06-23T15:07:38.969Z,101288.19
2023-06-23T15:10:08.353Z,101291.56
2023-06-23T15:12:38.046Z,101294.13
2023-06-23T15:15:08.438Z,101290.59
2023-06-23T15:17:37.327Z,101290.25
2023-06-23T15:20:06.960Z,101290.44
2023-06-23T15:22:35.596Z,101289.31
2023-06-23T15:25:04.562Z,101275.66
2023-06-23T15:27:33.173Z,101288.06
2023-06-23T15:30:03.550Z,101283.97
2023-06-23T15:32:33.728Z,101277.22
2023-06-23T15:35:02.758Z,101281.53
2023-06-23T15:37:31.384Z,101274.66
2023-06-23T15:40:00.463Z,101282.09
2023-06-23T15:42:29.113Z,101277.78
2023-06-23T15:44:58.043Z,101285.34
2023-06-23T15:47:27.803Z,101278.56
2023-06-23T15:49:56.451Z,101284.53
2023-06-23T15:52:25.128Z,101285.28
2023-06-23T15:54:53.740Z,101278.56
2023-06-23T15:57:23.528Z,101271.41
2023-06-23T15:59:52.421Z,101269.72
2023-06-23T16:02:26.340Z,101275.06
2023-06-23T16:04:56.411Z,101277.88
2023-06-23T16:07:25.254Z,101284.72
2023-06-23T16:09:54.963Z,101286.59
2023-06-23T16:12:23.542Z,101281.75
2023-06-23T16:14:52.109Z,101271.88
2023-06-23T16:17:20.734Z,101263.41
2023-06-23T16:19:49.286Z,101267.53
2023-06-23T16:22:20.469Z,101257.53
2023-06-23T16:24:49.032Z,101268.03
2023-06-23T16:27:17.905Z,101263.47
2023-06-23T16:29:46.609Z,101274.00
2023-06-23T16:32:15.278Z,101273.25
2023-06-23T16:34:43.917Z,101271.81
2023-06-23T16:37:12.468Z,101286.84
2023-06-23T16:39:42.139Z,101272.88
2023-06-23T16:42:11.048Z,101275.22
2023-06-23T16:44:41.908Z,101273.25
2023-06-23T16:47:11.520Z,101276.28
2023-06-23T16:49:39.926Z,101293.44
2023-06-23T16:52:10.730Z,101287.66
2023-06-23T16:54:42.070Z,101292.97
2023-06-23T16:57:14.053Z,101292.13
2023-06-23T16:59:42.899Z,101287.38
2023-06-23T17:02:11.541Z,101297.91
2023-06-23T17:04:40.132Z,101294.50
2023-06-23T17:07:10.530Z,101293.50
2023-06-23T17:09:41.043Z,101294.16
2023-06-23T17:12:18.685Z,101296.56
2023-06-23T17:14:48.763Z,101305.75
2023-06-23T17:17:17.801Z,101303.16
2023-06-23T17:19:46.573Z,101300.94
2023-06-23T17:22:16.045Z,101301.88
2023-06-23T17:24:47.164Z,101303.28
2023-06-23T17:27:15.815Z,101303.91
2023-06-23T17:29:44.376Z,101309.03
2023-06-23T17:32:13.260Z,101317.94
2023-06-23T17:34:41.688Z,101319.97
2023-06-23T17:37:10.336Z,101331.50
2023-06-23T17:39:38.893Z,101323.34
2023-06-23T17:42:10.947Z,101336.75
2023-06-23T17:44:39.609Z,101331.25
2023-06-23T17:47:08.247Z,101341.34
2023-06-23T17:49:37.197Z,101331.03
2023-06-23T17:52:06.677Z,101327.84
2023-06-23T17:54:36.037Z,101333.69
2023-06-23T17:57:05.067Z,101332.88
2023-06-23T17:59:35.115Z,101329.56
2023-06-23T18:02:04.024Z,101328.91
2023-06-23T18:04:32.733Z,101326.28
2023-06-23T18:07:01.859Z,101332.84
2023-06-23T18:09:30.156Z,101338.16
2023-06-23T18:11:58.707Z,101328.88
2023-06-23T18:14:27.274Z,101333.59
2023-06-23T18:16:56.905Z,101339.84
2023-06-23T18:19:25.848Z,101332.31
2023-06-23T18:21:55.239Z,101340.28
2023-06-23T18:24:24.217Z,101331.97
2023-06-23T18:26:53.220Z,101337.16
2023-06-23T18:29:21.894Z,101338.88
2023-06-23T18:31:55.488Z,101350.59
2023-06-23T18:34:25.150Z,101356.72
2023-06-23T18:36:53.661Z,101356.72
2023-06-23T18:39:22.606Z,101351.38
2023-06-23T18:41:51.201Z,101353.06
2023-06-23T18:44:20.691Z,101354.75
2023-06-23T18:46:49.527Z,101350.34
2023-06-23T18:49:18.103Z,101351.03
2023-06-23T18:51:47.682Z,101350.75
2023-06-23T18:54:16.300Z,101352.41
2023-06-23T18:56:44.617Z,101350.34
2023-06-23T18:59:13.192Z,101351.66
2023-06-23T19:01:41.734Z,101354.06
2023-06-23T19:04:10.399Z,101357.34
2023-06-23T19:06:38.850Z,101356.94
2023-06-23T19:09:09.006Z,101362.41
2023-06-23T19:11:37.951Z,101360.25
2023-06-23T19:14:06.542Z,101363.63
2023-06-23T19:16:35.244Z,101368.50
2023-06-23T19:19:04.329Z,101369.91
2023-06-23T19:21:33.164Z,101373.88
2023-06-23T19:24:02.458Z,101381.53
2023-06-23T19:26:32.932Z,101375.63
2023-06-23T19:29:01.838Z,101379.97
2023-06-23T19:31:30.468Z,101386.97
2023-06-23T19:33:59.058Z,101400.13
2023-06-23T19:36:27.827Z,101398.94
2023-06-23T19:38:57.323Z,101392.53
2023-06-23T19:41:25.892Z,101401.00
2023-06-23T19:43:55.824Z,101393.38
2023-06-23T19:46:24.646Z,101401.09
2023-06-23T19:48:55.455Z,101398.19
2023-06-23T19:51:24.124Z,101396.16
2023-06-23T19:53:52.399Z,101404.69
2023-06-23T19:56:21.479Z,101422.13
2023-06-23T19:58:50.084Z,101417.28
2023-06-23T20:01:20.082Z,101432.81
2023-06-23T20:03:49.240Z,101433.13
2023-06-23T20:06:19.176Z,101425.28
2023-06-23T20:08:47.905Z,101433.53
2023-06-23T20:11:16.498Z,101430.06
2023-06-23T20:13:45.066Z,101440.25
2023-06-23T20:16:13.869Z,101439.69
2023-06-23T20:18:43.886Z,101438.19
2023-06-23T20:21:12.492Z,101438.59
2023-06-23T20:23:41.100Z,101450.53
2023-06-23T20:26:09.759Z,101455.31
2023-06-23T20:28:38.336Z,101452.19
2023-06-23T20:31:06.947Z,101453.44
2023-06-23T20:33:35.542Z,101459.84
2023-06-23T20:36:05.586Z,101463.66
2023-06-23T20:38:34.677Z,101457.91
2023-06-23T20:41:03.413Z,101461.06
2023-06-23T20:43:32.074Z,101457.72
2023-06-23T20:46:00.855Z,101463.47
2023-06-23T20:48:29.294Z,101456.59
2023-06-23T20:50:58.461Z,101464.03
2023-06-23T20:53:29.586Z,101462.53
2023-06-23T20:55:58.415Z,101451.31
2023-06-23T20:58:26.985Z,101457.94
2023-06-23T21:00:55.900Z,101463.47
2023-06-23T21:03:24.589Z,101460.19
2023-06-23T21:05:53.498Z,101461.31
2023-06-23T21:08:22.102Z,101463.31
2023-06-23T21:10:51.834Z,101461.69
2023-06-23T21:13:20.408Z,101468.19
2023-06-23T21:15:49.496Z,101459.53
2023-06-23T21:18:18.284Z,101462.50
2023-06-23T21:20:46.956Z,101463.56
2023-06-23T21:23:15.609Z,101460.22
2023-06-23T21:25:44.949Z,101462.22
2023-06-23T21:28:14.638Z,101462.38
2023-06-23T21:30:43.757Z,101461.78
2023-06-23T21:33:12.341Z,101458.44
2023-06-23T21:35:41.731Z,101465.00
2023-06-23T21:38:10.514Z,101467.09
2023-06-23T21:40:40.757Z,101457.63
2023-06-23T21:43:10.637Z,101461.59
2023-06-23T21:45:40.569Z,101461.84
2023-06-23T21:48:08.842Z,101461.44
2023-06-23T21:50:37.591Z,101458.34
2023-06-23T21:53:06.201Z,101461.53
2023-06-23T21:55:36.446Z,101468.13
2023-06-23T21:58:07.780Z,101460.47
2023-06-23T22:00:36.746Z,101464.28
2023-06-23T22:03:06.846Z,101459.97
2023-06-23T22:05:35.521Z,101467.19
2023-06-23T22:08:04.083Z,101472.66
2023-06-23T22:10:33.014Z,101469.94
2023-06-23T22:13:02.020Z,101468.69
2023-06-23T22:15:30.747Z,101477.78
2023-06-23T22:17:59.491Z,101472.63
2023-06-23T22:20:29.179Z,101470.03
2023-06-23T22:22:57.988Z,101478.28
2023-06-23T22:25:26.592Z,101468.47
2023-06-23T22:27:55.056Z,101471.03
2023-06-23T22:30:23.630Z,101467.47
2023-06-23T22:32:52.342Z,101463.84
2023-06-23T22:35:20.906Z,101470.03
2023-06-23T22:37:51.045Z,101482.34
2023-06-23T22:40:20.322Z,101478.81
2023-06-23T22:42:49.143Z,101485.97
2023-06-23T22:45:17.764Z,101489.53
2023-06-23T22:47:46.362Z,101479.84
2023-06-23T22:50:15.044Z,101490.50
2023-06-23T22:52:43.878Z,101494.13
2023-06-23T22:55:13.561Z,101483.44
2023-06-23T22:57:41.920Z,101492.53
2023-06-23T23:00:12.174Z,101480.94
2023-06-23T23:02:41.193Z,101494.34
2023-06-23T23:05:10.902Z,101495.28
2023-06-23T23:07:39.523Z,101498.19
2023-06-23T23:10:11.154Z,101497.22
2023-06-23T23:12:40.986Z,101500.06
2023-06-23T23:15:10.487Z,101494.97
2023-06-23T23:17:39.144Z,101504.94
2023-06-23T23:20:10.856Z,101495.19
2023-06-23T23:22:39.508Z,101499.13
2023-06-23T23:25:09.259Z,101491.66
2023-06-23T23:27:38.729Z,101482.50
2023-06-23T23:30:13.581Z,101482.66
2023-06-23T23:32:43.113Z,101484.84
2023-06-23T23:35:12.350Z,101488.59
2023-06-23T23:37:41.260Z,101488.75
2023-06-23T23:40:12.453Z,101488.97
2023-06-23T23:42:41.858Z,101494.63
2023-06-23T23:45:12.776Z,101487.09
2023-06-23T23:47:42.089Z,101490.22
2023-06-23T23:50:11.864Z,101491.50
2023-06-23T23:52:41.051Z,101493.66
2023-06-23T23:55:10.470Z,101498.41
2023-06-23T23:57:39.186Z,101484.44
